sensor_id;sensor_type;location;lat;lon;timestamp;P1;durP1;ratioP1;P2;durP2;ratioP2
23578;SDS011;11967;50.852;4.400;2022-08-01T00:00:24;5.72;;;1.60;;
23578;SDS011;11967;50.852;4.400;2022-08-01T00:02:50;4.85;;;2.03;;
23578;SDS011;11967;50.852;4.400;2022-08-01T00:05:16;4.22;;;1.95;;
23578;SDS011;11967;50.852;4.400;2022-08-01T00:07:41;4.53;;;2.17;;
23578;SDS011;11967;50.852;4.400;2022-08-01T00:10:08;6.40;;;2.38;;
23578;SDS011;11967;50.852;4.400;2022-08-01T00:12:36;7.07;;;3.72;;
23578;SDS011;11967;50.852;4.400;2022-08-01T00:15:02;9.32;;;4.00;;
23578;SDS011;11967;50.852;4.400;2022-08-01T00:17:30;8.38;;;3.30;;
23578;SDS011;11967;50.852;4.400;2022-08-01T00:19:56;5.40;;;3.22;;
23578;SDS011;11967;50.852;4.400;2022-08-01T00:22:21;5.63;;;2.80;;
23578;SDS011;11967;50.852;4.400;2022-08-01T00:24:47;6.60;;;3.55;;
23578;SDS011;11967;50.852;4.400;2022-08-01T00:27:13;7.18;;;3.38;;
23578;SDS011;11967;50.852;4.400;2022-08-01T00:29:39;9.50;;;3.78;;
23578;SDS011;11967;50.852;4.400;2022-08-01T00:32:05;9.35;;;3.75;;
23578;SDS011;11967;50.852;4.400;2022-08-01T00:34:31;11.55;;;4.63;;
23578;SDS011;11967;50.852;4.400;2022-08-01T00:36:56;8.20;;;3.83;;
23578;SDS011;11967;50.852;4.400;2022-08-01T00:39:22;9.43;;;4.95;;
23578;SDS011;11967;50.852;4.400;2022-08-01T00:41:47;9.15;;;4.57;;
23578;SDS011;11967;50.852;4.400;2022-08-01T00:44:13;10.13;;;4.60;;
23578;SDS011;11967;50.852;4.400;2022-08-01T00:46:39;7.38;;;3.40;;
23578;SDS011;11967;50.852;4.400;2022-08-01T00:49:04;10.63;;;3.75;;
23578;SDS011;11967;50.852;4.400;2022-08-01T00:51:31;12.20;;;3.90;;
23578;SDS011;11967;50.852;4.400;2022-08-01T00:53:59;8.38;;;3.53;;
23578;SDS011;11967;50.852;4.400;2022-08-01T00:56:25;7.85;;;3.53;;
23578;SDS011;11967;50.852;4.400;2022-08-01T00:58:54;7.28;;;3.38;;
23578;SDS011;11967;50.852;4.400;2022-08-01T01:01:20;12.43;;;3.50;;
23578;SDS011;11967;50.852;4.400;2022-08-01T01:03:47;7.22;;;3.33;;
23578;SDS011;11967;50.852;4.400;2022-08-01T01:06:28;8.00;;;3.67;;
23578;SDS011;11967;50.852;4.400;2022-08-01T01:11:55;6.37;;;3.03;;
23578;SDS011;11967;50.852;4.400;2022-08-01T01:17:27;7.53;;;2.95;;
23578;SDS011;11967;50.852;4.400;2022-08-01T01:19:57;3.90;;;2.72;;
23578;SDS011;11967;50.852;4.400;2022-08-01T01:25:40;8.13;;;3.28;;
23578;SDS011;11967;50.852;4.400;2022-08-01T01:28:10;9.32;;;3.60;;
23578;SDS011;11967;50.852;4.400;2022-08-01T01:30:58;6.07;;;3.53;;
23578;SDS011;11967;50.852;4.400;2022-08-01T01:33:25;9.07;;;3.80;;
23578;SDS011;11967;50.852;4.400;2022-08-01T01:36:01;7.82;;;3.85;;
23578;SDS011;11967;50.852;4.400;2022-08-01T01:40:58;6.25;;;3.65;;
23578;SDS011;11967;50.852;4.400;2022-08-01T01:43:25;6.60;;;4.13;;
23578;SDS011;11967;50.852;4.400;2022-08-01T01:45:52;13.07;;;6.22;;
23578;SDS011;11967;50.852;4.400;2022-08-01T01:48:19;8.32;;;5.22;;
23578;SDS011;11967;50.852;4.400;2022-08-01T01:50:47;18.50;;;8.23;;
23578;SDS011;11967;50.852;4.400;2022-08-01T01:53:17;14.13;;;7.90;;
23578;SDS011;11967;50.852;4.400;2022-08-01T01:55:46;17.80;;;8.50;;
23578;SDS011;11967;50.852;4.400;2022-08-01T01:58:16;13.43;;;8.02;;
23578;SDS011;11967;50.852;4.400;2022-08-01T02:00:44;17.65;;;7.95;;
23578;SDS011;11967;50.852;4.400;2022-08-01T02:03:11;16.95;;;7.75;;
23578;SDS011;11967;50.852;4.400;2022-08-01T02:05:40;13.75;;;7.68;;
23578;SDS011;11967;50.852;4.400;2022-08-01T02:08:07;21.73;;;9.25;;
23578;SDS011;11967;50.852;4.400;2022-08-01T02:10:36;19.52;;;9.40;;
23578;SDS011;11967;50.852;4.400;2022-08-01T02:13:03;19.17;;;9.52;;
23578;SDS011;11967;50.852;4.400;2022-08-01T02:15:33;15.43;;;8.60;;
23578;SDS011;11967;50.852;4.400;2022-08-01T02:18:03;15.35;;;8.35;;
23578;SDS011;11967;50.852;4.400;2022-08-01T02:20:30;18.40;;;8.50;;
23578;SDS011;11967;50.852;4.400;2022-08-01T02:23:08;16.25;;;8.70;;
23578;SDS011;11967;50.852;4.400;2022-08-01T02:25:43;16.33;;;8.15;;
23578;SDS011;11967;50.852;4.400;2022-08-01T02:28:23;17.95;;;8.77;;
23578;SDS011;11967;50.852;4.400;2022-08-01T02:30:54;15.57;;;8.02;;
23578;SDS011;11967;50.852;4.400;2022-08-01T02:33:27;15.77;;;8.23;;
23578;SDS011;11967;50.852;4.400;2022-08-01T02:36:02;17.13;;;7.45;;
23578;SDS011;11967;50.852;4.400;2022-08-01T02:38:28;15.48;;;8.50;;
23578;SDS011;11967;50.852;4.400;2022-08-01T02:40:58;16.75;;;8.18;;
23578;SDS011;11967;50.852;4.400;2022-08-01T02:43:27;21.05;;;8.95;;
23578;SDS011;11967;50.852;4.400;2022-08-01T02:45:58;18.60;;;8.77;;
23578;SDS011;11967;50.852;4.400;2022-08-01T02:48:27;19.73;;;8.45;;
23578;SDS011;11967;50.852;4.400;2022-08-01T02:50:57;19.65;;;10.02;;
23578;SDS011;11967;50.852;4.400;2022-08-01T02:53:27;17.25;;;9.70;;
23578;SDS011;11967;50.852;4.400;2022-08-01T02:55:56;23.58;;;9.93;;
23578;SDS011;11967;50.852;4.400;2022-08-01T02:58:23;21.02;;;10.50;;
23578;SDS011;11967;50.852;4.400;2022-08-01T03:00:52;24.35;;;11.63;;
23578;SDS011;11967;50.852;4.400;2022-08-01T03:03:18;24.23;;;12.07;;
23578;SDS011;11967;50.852;4.400;2022-08-01T03:05:45;25.80;;;11.60;;
23578;SDS011;11967;50.852;4.400;2022-08-01T03:08:11;25.40;;;12.00;;
23578;SDS011;11967;50.852;4.400;2022-08-01T03:10:39;24.42;;;11.95;;
23578;SDS011;11967;50.852;4.400;2022-08-01T03:13:07;19.23;;;9.82;;
23578;SDS011;11967;50.852;4.400;2022-08-01T03:15:36;25.85;;;11.10;;
23578;SDS011;11967;50.852;4.400;2022-08-01T03:18:04;19.85;;;9.85;;
23578;SDS011;11967;50.852;4.400;2022-08-01T03:20:33;27.05;;;10.68;;
23578;SDS011;11967;50.852;4.400;2022-08-01T03:22:59;19.55;;;9.57;;
23578;SDS011;11967;50.852;4.400;2022-08-01T03:25:30;23.00;;;9.43;;
23578;SDS011;11967;50.852;4.400;2022-08-01T03:27:58;23.25;;;10.00;;
23578;SDS011;11967;50.852;4.400;2022-08-01T03:30:27;23.85;;;10.20;;
23578;SDS011;11967;50.852;4.400;2022-08-01T03:32:55;19.60;;;8.73;;
23578;SDS011;11967;50.852;4.400;2022-08-01T03:35:21;20.02;;;8.88;;
23578;SDS011;11967;50.852;4.400;2022-08-01T03:37:52;21.70;;;9.85;;
23578;SDS011;11967;50.852;4.400;2022-08-01T03:40:28;17.60;;;8.50;;
23578;SDS011;11967;50.852;4.400;2022-08-01T03:43:02;17.75;;;8.68;;
23578;SDS011;11967;50.852;4.400;2022-08-01T03:45:31;18.58;;;8.48;;
23578;SDS011;11967;50.852;4.400;2022-08-01T03:48:03;19.15;;;8.35;;
23578;SDS011;11967;50.852;4.400;2022-08-01T03:50:43;16.48;;;8.77;;
23578;SDS011;11967;50.852;4.400;2022-08-01T03:53:13;17.23;;;8.13;;
23578;SDS011;11967;50.852;4.400;2022-08-01T03:55:41;20.48;;;9.50;;
23578;SDS011;11967;50.852;4.400;2022-08-01T03:58:09;16.35;;;9.05;;
23578;SDS011;11967;50.852;4.400;2022-08-01T04:00:36;17.73;;;8.57;;
23578;SDS011;11967;50.852;4.400;2022-08-01T04:03:06;17.25;;;8.90;;
23578;SDS011;11967;50.852;4.400;2022-08-01T04:05:33;18.48;;;9.10;;
23578;SDS011;11967;50.852;4.400;2022-08-01T04:08:00;21.52;;;10.50;;
23578;SDS011;11967;50.852;4.400;2022-08-01T04:10:29;19.23;;;9.90;;
23578;SDS011;11967;50.852;4.400;2022-08-01T04:12:55;18.25;;;9.63;;
23578;SDS011;11967;50.852;4.400;2022-08-01T04:15:21;20.15;;;9.50;;
23578;SDS011;11967;50.852;4.400;2022-08-01T04:17:46;20.23;;;9.75;;
23578;SDS011;11967;50.852;4.400;2022-08-01T04:20:13;19.90;;;9.70;;
23578;SDS011;11967;50.852;4.400;2022-08-01T04:22:39;14.65;;;8.98;;
23578;SDS011;11967;50.852;4.400;2022-08-01T04:25:06;16.02;;;8.48;;
23578;SDS011;11967;50.852;4.400;2022-08-01T04:27:42;16.35;;;9.88;;
23578;SDS011;11967;50.852;4.400;2022-08-01T04:30:13;13.30;;;7.88;;
23578;SDS011;11967;50.852;4.400;2022-08-01T04:32:40;13.05;;;8.60;;
23578;SDS011;11967;50.852;4.400;2022-08-01T04:35:09;14.18;;;8.43;;
23578;SDS011;11967;50.852;4.400;2022-08-01T04:37:41;14.43;;;9.15;;
23578;SDS011;11967;50.852;4.400;2022-08-01T04:40:09;16.17;;;9.77;;
23578;SDS011;11967;50.852;4.400;2022-08-01T04:42:36;15.93;;;10.43;;
23578;SDS011;11967;50.852;4.400;2022-08-01T04:45:02;18.08;;;12.05;;
23578;SDS011;11967;50.852;4.400;2022-08-01T04:47:28;21.23;;;13.05;;
23578;SDS011;11967;50.852;4.400;2022-08-01T04:49:55;20.80;;;12.15;;
23578;SDS011;11967;50.852;4.400;2022-08-01T04:52:22;22.60;;;13.57;;
23578;SDS011;11967;50.852;4.400;2022-08-01T04:54:47;19.27;;;13.35;;
23578;SDS011;11967;50.852;4.400;2022-08-01T04:57:14;20.98;;;12.95;;
23578;SDS011;11967;50.852;4.400;2022-08-01T04:59:41;20.50;;;12.18;;
23578;SDS011;11967;50.852;4.400;2022-08-01T05:02:12;21.38;;;12.30;;
23578;SDS011;11967;50.852;4.400;2022-08-01T05:04:40;17.10;;;11.27;;
23578;SDS011;11967;50.852;4.400;2022-08-01T05:07:07;17.80;;;11.00;;
23578;SDS011;11967;50.852;4.400;2022-08-01T05:09:33;17.10;;;10.75;;
23578;SDS011;11967;50.852;4.400;2022-08-01T05:11:59;16.73;;;9.88;;
23578;SDS011;11967;50.852;4.400;2022-08-01T05:14:26;14.85;;;9.88;;
23578;SDS011;11967;50.852;4.400;2022-08-01T05:16:53;16.98;;;10.20;;
23578;SDS011;11967;50.852;4.400;2022-08-01T05:19:19;18.83;;;10.43;;
23578;SDS011;11967;50.852;4.400;2022-08-01T05:21:45;18.27;;;10.32;;
23578;SDS011;11967;50.852;4.400;2022-08-01T05:24:11;16.35;;;10.82;;
23578;SDS011;11967;50.852;4.400;2022-08-01T05:26:37;16.48;;;10.20;;
23578;SDS011;11967;50.852;4.400;2022-08-01T05:29:03;17.25;;;11.32;;
23578;SDS011;11967;50.852;4.400;2022-08-01T05:31:29;18.40;;;10.68;;
23578;SDS011;11967;50.852;4.400;2022-08-01T05:33:56;15.05;;;9.75;;
23578;SDS011;11967;50.852;4.400;2022-08-01T05:36:21;13.98;;;8.90;;
23578;SDS011;11967;50.852;4.400;2022-08-01T05:38:47;15.30;;;8.98;;
23578;SDS011;11967;50.852;4.400;2022-08-01T05:41:12;14.13;;;8.18;;
23578;SDS011;11967;50.852;4.400;2022-08-01T05:43:38;14.07;;;8.15;;
23578;SDS011;11967;50.852;4.400;2022-08-01T05:46:04;10.38;;;7.40;;
23578;SDS011;11967;50.852;4.400;2022-08-01T05:48:29;12.52;;;8.25;;
23578;SDS011;11967;50.852;4.400;2022-08-01T05:50:55;13.13;;;8.43;;
23578;SDS011;11967;50.852;4.400;2022-08-01T05:53:21;16.42;;;8.55;;
23578;SDS011;11967;50.852;4.400;2022-08-01T05:55:46;11.98;;;7.57;;
23578;SDS011;11967;50.852;4.400;2022-08-01T05:58:12;9.85;;;6.50;;
23578;SDS011;11967;50.852;4.400;2022-08-01T06:00:37;15.32;;;8.35;;
23578;SDS011;11967;50.852;4.400;2022-08-01T06:03:03;16.48;;;9.43;;
23578;SDS011;11967;50.852;4.400;2022-08-01T06:05:30;13.05;;;8.77;;
23578;SDS011;11967;50.852;4.400;2022-08-01T06:07:55;12.35;;;8.13;;
23578;SDS011;11967;50.852;4.400;2022-08-01T06:10:23;13.32;;;7.45;;
23578;SDS011;11967;50.852;4.400;2022-08-01T06:12:49;12.32;;;7.68;;
23578;SDS011;11967;50.852;4.400;2022-08-01T06:15:15;11.02;;;7.20;;
23578;SDS011;11967;50.852;4.400;2022-08-01T06:17:41;10.77;;;6.72;;
23578;SDS011;11967;50.852;4.400;2022-08-01T06:20:07;12.02;;;6.70;;
23578;SDS011;11967;50.852;4.400;2022-08-01T06:22:34;9.43;;;6.57;;
23578;SDS011;11967;50.852;4.400;2022-08-01T06:24:59;10.95;;;7.32;;
23578;SDS011;11967;50.852;4.400;2022-08-01T06:27:25;11.48;;;7.50;;
23578;SDS011;11967;50.852;4.400;2022-08-01T06:29:51;10.13;;;6.85;;
23578;SDS011;11967;50.852;4.400;2022-08-01T06:32:22;11.13;;;7.40;;
23578;SDS011;11967;50.852;4.400;2022-08-01T06:34:49;12.02;;;7.15;;
23578;SDS011;11967;50.852;4.400;2022-08-01T06:37:15;11.93;;;6.53;;
23578;SDS011;11967;50.852;4.400;2022-08-01T06:39:41;10.15;;;6.38;;
23578;SDS011;11967;50.852;4.400;2022-08-01T06:42:06;10.07;;;6.82;;
23578;SDS011;11967;50.852;4.400;2022-08-01T06:44:32;10.40;;;5.65;;
23578;SDS011;11967;50.852;4.400;2022-08-01T06:46:58;10.65;;;6.55;;
23578;SDS011;11967;50.852;4.400;2022-08-01T06:49:24;8.20;;;5.22;;
23578;SDS011;11967;50.852;4.400;2022-08-01T06:51:50;8.93;;;5.35;;
23578;SDS011;11967;50.852;4.400;2022-08-01T06:54:15;6.78;;;5.05;;
23578;SDS011;11967;50.852;4.400;2022-08-01T06:56:41;9.80;;;5.22;;
23578;SDS011;11967;50.852;4.400;2022-08-01T06:59:07;10.43;;;4.88;;
23578;SDS011;11967;50.852;4.400;2022-08-01T07:01:33;10.60;;;5.00;;
23578;SDS011;11967;50.852;4.400;2022-08-01T07:04:02;8.23;;;4.70;;
23578;SDS011;11967;50.852;4.400;2022-08-01T07:06:28;6.97;;;4.57;;
23578;SDS011;11967;50.852;4.400;2022-08-01T07:08:54;8.88;;;5.43;;
23578;SDS011;11967;50.852;4.400;2022-08-01T07:11:21;9.85;;;5.35;;
23578;SDS011;11967;50.852;4.400;2022-08-01T07:13:48;9.25;;;4.78;;
23578;SDS011;11967;50.852;4.400;2022-08-01T07:16:15;8.38;;;4.80;;
23578;SDS011;11967;50.852;4.400;2022-08-01T07:18:41;8.38;;;5.00;;
23578;SDS011;11967;50.852;4.400;2022-08-01T07:21:07;10.23;;;6.03;;
23578;SDS011;11967;50.852;4.400;2022-08-01T07:23:33;7.45;;;4.40;;
23578;SDS011;11967;50.852;4.400;2022-08-01T07:25:59;9.13;;;4.50;;
23578;SDS011;11967;50.852;4.400;2022-08-01T07:28:26;8.73;;;4.00;;
23578;SDS011;11967;50.852;4.400;2022-08-01T07:30:53;5.10;;;3.67;;
23578;SDS011;11967;50.852;4.400;2022-08-01T07:33:18;5.95;;;3.58;;
23578;SDS011;11967;50.852;4.400;2022-08-01T07:35:51;5.20;;;3.65;;
23578;SDS011;11967;50.852;4.400;2022-08-01T07:38:20;6.60;;;3.75;;
23578;SDS011;11967;50.852;4.400;2022-08-01T07:40:45;5.00;;;3.45;;
23578;SDS011;11967;50.852;4.400;2022-08-01T07:43:11;7.00;;;4.07;;
23578;SDS011;11967;50.852;4.400;2022-08-01T07:45:37;7.32;;;3.95;;
23578;SDS011;11967;50.852;4.400;2022-08-01T07:48:05;6.03;;;4.32;;
23578;SDS011;11967;50.852;4.400;2022-08-01T07:50:34;8.63;;;4.18;;
23578;SDS011;11967;50.852;4.400;2022-08-01T07:53:02;5.70;;;4.53;;
23578;SDS011;11967;50.852;4.400;2022-08-01T07:55:29;7.70;;;4.25;;
23578;SDS011;11967;50.852;4.400;2022-08-01T07:57:55;6.35;;;3.47;;
23578;SDS011;11967;50.852;4.400;2022-08-01T08:00:20;6.50;;;3.90;;
23578;SDS011;11967;50.852;4.400;2022-08-01T08:02:48;6.90;;;3.80;;
23578;SDS011;11967;50.852;4.400;2022-08-01T08:05:14;4.55;;;3.72;;
23578;SDS011;11967;50.852;4.400;2022-08-01T08:07:40;6.20;;;3.67;;
23578;SDS011;11967;50.852;4.400;2022-08-01T08:10:06;4.35;;;3.28;;
23578;SDS011;11967;50.852;4.400;2022-08-01T08:12:32;5.43;;;3.50;;
23578;SDS011;11967;50.852;4.400;2022-08-01T08:14:59;4.95;;;3.47;;
23578;SDS011;11967;50.852;4.400;2022-08-01T08:17:26;6.32;;;3.20;;
23578;SDS011;11967;50.852;4.400;2022-08-01T08:19:52;4.32;;;2.50;;
23578;SDS011;11967;50.852;4.400;2022-08-01T08:22:18;4.00;;;2.38;;
23578;SDS011;11967;50.852;4.400;2022-08-01T08:24:45;3.88;;;2.40;;
23578;SDS011;11967;50.852;4.400;2022-08-01T08:27:11;5.80;;;2.50;;
23578;SDS011;11967;50.852;4.400;2022-08-01T08:29:37;8.80;;;2.53;;
23578;SDS011;11967;50.852;4.400;2022-08-01T08:32:03;5.80;;;2.67;;
23578;SDS011;11967;50.852;4.400;2022-08-01T08:34:29;8.40;;;2.60;;
23578;SDS011;11967;50.852;4.400;2022-08-01T08:36:55;4.15;;;2.38;;
23578;SDS011;11967;50.852;4.400;2022-08-01T08:39:23;3.35;;;1.90;;
23578;SDS011;11967;50.852;4.400;2022-08-01T08:41:49;3.45;;;2.33;;
23578;SDS011;11967;50.852;4.400;2022-08-01T08:44:15;4.18;;;2.03;;
23578;SDS011;11967;50.852;4.400;2022-08-01T08:46:44;4.35;;;2.28;;
23578;SDS011;11967;50.852;4.400;2022-08-01T08:49:17;2.88;;;2.10;;
23578;SDS011;11967;50.852;4.400;2022-08-01T08:51:47;6.43;;;2.53;;
23578;SDS011;11967;50.852;4.400;2022-08-01T08:54:15;5.35;;;2.15;;
23578;SDS011;11967;50.852;4.400;2022-08-01T08:56:42;4.68;;;2.30;;
23578;SDS011;11967;50.852;4.400;2022-08-01T08:59:10;7.75;;;2.53;;
23578;SDS011;11967;50.852;4.400;2022-08-01T09:01:38;7.82;;;2.50;;
23578;SDS011;11967;50.852;4.400;2022-08-01T09:04:04;5.07;;;2.50;;
23578;SDS011;11967;50.852;4.400;2022-08-01T09:06:30;6.22;;;2.63;;
23578;SDS011;11967;50.852;4.400;2022-08-01T09:08:57;4.88;;;2.50;;
23578;SDS011;11967;50.852;4.400;2022-08-01T09:11:23;9.98;;;2.80;;
23578;SDS011;11967;50.852;4.400;2022-08-01T09:14:08;7.30;;;3.10;;
23578;SDS011;11967;50.852;4.400;2022-08-01T09:16:44;4.30;;;2.80;;
23578;SDS011;11967;50.852;4.400;2022-08-01T09:19:11;6.45;;;3.17;;
23578;SDS011;11967;50.852;4.400;2022-08-01T09:21:39;5.55;;;2.97;;
23578;SDS011;11967;50.852;4.400;2022-08-01T09:24:19;5.43;;;2.50;;
23578;SDS011;11967;50.852;4.400;2022-08-01T09:26:46;3.92;;;2.30;;
23578;SDS011;11967;50.852;4.400;2022-08-01T09:29:17;3.78;;;2.60;;
23578;SDS011;11967;50.852;4.400;2022-08-01T09:31:47;7.22;;;2.40;;
23578;SDS011;11967;50.852;4.400;2022-08-01T09:34:14;5.35;;;2.60;;
23578;SDS011;11967;50.852;4.400;2022-08-01T09:37:00;6.30;;;2.35;;
23578;SDS011;11967;50.852;4.400;2022-08-01T09:39:31;3.38;;;2.28;;
23578;SDS011;11967;50.852;4.400;2022-08-01T09:42:02;3.30;;;2.30;;
23578;SDS011;11967;50.852;4.400;2022-08-01T09:44:44;7.70;;;2.83;;
23578;SDS011;11967;50.852;4.400;2022-08-01T09:47:11;4.65;;;2.35;;
23578;SDS011;11967;50.852;4.400;2022-08-01T09:49:39;3.65;;;1.98;;
23578;SDS011;11967;50.852;4.400;2022-08-01T09:52:14;4.72;;;2.00;;
23578;SDS011;11967;50.852;4.400;2022-08-01T09:54:42;5.68;;;2.42;;
23578;SDS011;11967;50.852;4.400;2022-08-01T09:57:16;4.93;;;2.20;;
23578;SDS011;11967;50.852;4.400;2022-08-01T09:59:45;3.83;;;2.15;;
23578;SDS011;11967;50.852;4.400;2022-08-01T10:02:13;4.82;;;2.58;;
23578;SDS011;11967;50.852;4.400;2022-08-01T10:04:48;5.10;;;2.22;;
23578;SDS011;11967;50.852;4.400;2022-08-01T10:07:14;4.68;;;2.13;;
23578;SDS011;11967;50.852;4.400;2022-08-01T10:09:40;4.72;;;2.10;;
23578;SDS011;11967;50.852;4.400;2022-08-01T10:12:11;3.13;;;1.80;;
23578;SDS011;11967;50.852;4.400;2022-08-01T10:14:41;4.25;;;1.58;;
23578;SDS011;11967;50.852;4.400;2022-08-01T10:17:14;3.67;;;1.58;;
23578;SDS011;11967;50.852;4.400;2022-08-01T10:19:42;4.90;;;2.35;;
23578;SDS011;11967;50.852;4.400;2022-08-01T10:22:09;4.43;;;2.20;;
23578;SDS011;11967;50.852;4.400;2022-08-01T10:24:43;4.00;;;1.75;;
23578;SDS011;11967;50.852;4.400;2022-08-01T10:27:13;3.97;;;1.75;;
23578;SDS011;11967;50.852;4.400;2022-08-01T10:29:42;6.57;;;2.15;;
23578;SDS011;11967;50.852;4.400;2022-08-01T10:32:14;4.13;;;2.30;;
23578;SDS011;11967;50.852;4.400;2022-08-01T10:34:42;2.95;;;1.83;;
23578;SDS011;11967;50.852;4.400;2022-08-01T10:37:08;2.95;;;1.60;;
23578;SDS011;11967;50.852;4.400;2022-08-01T10:39:34;6.72;;;1.77;;
23578;SDS011;11967;50.852;4.400;2022-08-01T10:42:00;3.85;;;1.80;;
23578;SDS011;11967;50.852;4.400;2022-08-01T10:44:28;3.40;;;2.00;;
23578;SDS011;11967;50.852;4.400;2022-08-01T10:47:06;2.17;;;1.60;;
23578;SDS011;11967;50.852;4.400;2022-08-01T10:49:39;3.53;;;1.55;;
23578;SDS011;11967;50.852;4.400;2022-08-01T10:52:14;3.97;;;1.70;;
23578;SDS011;11967;50.852;4.400;2022-08-01T10:54:42;3.70;;;1.98;;
23578;SDS011;11967;50.852;4.400;2022-08-01T10:57:09;2.50;;;1.70;;
23578;SDS011;11967;50.852;4.400;2022-08-01T10:59:37;7.25;;;2.05;;
23578;SDS011;11967;50.852;4.400;2022-08-01T11:02:26;8.27;;;2.00;;
23578;SDS011;11967;50.852;4.400;2022-08-01T11:05:07;4.70;;;1.95;;
23578;SDS011;11967;50.852;4.400;2022-08-01T11:07:45;4.95;;;1.95;;
23578;SDS011;11967;50.852;4.400;2022-08-01T11:13:08;4.65;;;1.83;;
23578;SDS011;11967;50.852;4.400;2022-08-01T11:15:36;1.83;;;1.60;;
23578;SDS011;11967;50.852;4.400;2022-08-01T11:18:03;1.70;;;1.45;;
23578;SDS011;11967;50.852;4.400;2022-08-01T11:20:58;2.90;;;1.75;;
23578;SDS011;11967;50.852;4.400;2022-08-01T11:23:29;3.75;;;1.52;;
23578;SDS011;11967;50.852;4.400;2022-08-01T11:28:28;1.63;;;1.40;;
23578;SDS011;11967;50.852;4.400;2022-08-01T11:38:41;3.13;;;1.45;;
23578;SDS011;11967;50.852;4.400;2022-08-01T11:41:09;1.98;;;1.13;;
23578;SDS011;11967;50.852;4.400;2022-08-01T11:49:34;5.40;;;1.20;;
23578;SDS011;11967;50.852;4.400;2022-08-01T11:52:13;2.00;;;1.27;;
23578;SDS011;11967;50.852;4.400;2022-08-01T11:54:45;2.55;;;1.23;;
23578;SDS011;11967;50.852;4.400;2022-08-01T11:57:12;1.27;;;1.00;;
23578;SDS011;11967;50.852;4.400;2022-08-01T11:59:41;2.28;;;1.40;;
23578;SDS011;11967;50.852;4.400;2022-08-01T12:04:49;1.50;;;1.10;;
23578;SDS011;11967;50.852;4.400;2022-08-01T12:07:18;1.85;;;1.10;;
23578;SDS011;11967;50.852;4.400;2022-08-01T12:09:46;4.00;;;1.58;;
23578;SDS011;11967;50.852;4.400;2022-08-01T12:12:16;2.40;;;1.15;;
23578;SDS011;11967;50.852;4.400;2022-08-01T12:14:43;3.10;;;1.30;;
23578;SDS011;11967;50.852;4.400;2022-08-01T12:17:10;2.17;;;1.40;;
23578;SDS011;11967;50.852;4.400;2022-08-01T12:19:36;1.85;;;1.20;;
23578;SDS011;11967;50.852;4.400;2022-08-01T12:27:02;1.20;;;1.10;;
23578;SDS011;11967;50.852;4.400;2022-08-01T12:29:32;1.85;;;1.23;;
23578;SDS011;11967;50.852;4.400;2022-08-01T12:32:03;3.08;;;1.42;;
23578;SDS011;11967;50.852;4.400;2022-08-01T12:34:29;4.43;;;1.48;;
23578;SDS011;11967;50.852;4.400;2022-08-01T12:36:58;1.73;;;1.13;;
23578;SDS011;11967;50.852;4.400;2022-08-01T12:39:29;4.72;;;1.40;;
23578;SDS011;11967;50.852;4.400;2022-08-01T12:41:56;4.63;;;1.45;;
23578;SDS011;11967;50.852;4.400;2022-08-01T12:44:22;1.80;;;1.20;;
23578;SDS011;11967;50.852;4.400;2022-08-01T12:46:48;4.30;;;1.13;;
23578;SDS011;11967;50.852;4.400;2022-08-01T12:49:14;1.63;;;1.17;;
23578;SDS011;11967;50.852;4.400;2022-08-01T12:51:40;2.80;;;1.20;;
23578;SDS011;11967;50.852;4.400;2022-08-01T12:54:06;3.95;;;1.40;;
23578;SDS011;11967;50.852;4.400;2022-08-01T12:56:36;3.67;;;1.15;;
23578;SDS011;11967;50.852;4.400;2022-08-01T12:59:01;2.22;;;0.95;;
23578;SDS011;11967;50.852;4.400;2022-08-01T13:01:44;1.65;;;0.90;;
23578;SDS011;11967;50.852;4.400;2022-08-01T13:04:11;3.05;;;1.25;;
23578;SDS011;11967;50.852;4.400;2022-08-01T13:06:37;4.78;;;1.30;;
23578;SDS011;11967;50.852;4.400;2022-08-01T13:09:09;3.35;;;1.30;;
23578;SDS011;11967;50.852;4.400;2022-08-01T13:11:40;4.53;;;1.40;;
23578;SDS011;11967;50.852;4.400;2022-08-01T13:14:06;1.92;;;1.20;;
23578;SDS011;11967;50.852;4.400;2022-08-01T13:16:32;3.22;;;1.30;;
23578;SDS011;11967;50.852;4.400;2022-08-01T13:19:09;2.53;;;1.33;;
23578;SDS011;11967;50.852;4.400;2022-08-01T13:21:35;2.00;;;1.10;;
23578;SDS011;11967;50.852;4.400;2022-08-01T13:24:12;2.70;;;1.20;;
23578;SDS011;11967;50.852;4.400;2022-08-01T13:29:08;3.60;;;1.40;;
23578;SDS011;11967;50.852;4.400;2022-08-01T13:31:36;2.58;;;1.20;;
23578;SDS011;11967;50.852;4.400;2022-08-01T13:34:03;1.48;;;1.15;;
23578;SDS011;11967;50.852;4.400;2022-08-01T13:36:29;1.83;;;1.08;;
23578;SDS011;11967;50.852;4.400;2022-08-01T13:38:58;3.08;;;1.50;;
23578;SDS011;11967;50.852;4.400;2022-08-01T13:41:43;4.38;;;1.17;;
23578;SDS011;11967;50.852;4.400;2022-08-01T13:44:10;2.80;;;1.35;;
23578;SDS011;11967;50.852;4.400;2022-08-01T13:46:37;3.42;;;1.33;;
23578;SDS011;11967;50.852;4.400;2022-08-01T13:49:04;3.08;;;1.40;;
23578;SDS011;11967;50.852;4.400;2022-08-01T13:51:31;2.20;;;1.10;;
23578;SDS011;11967;50.852;4.400;2022-08-01T13:53:57;5.97;;;1.20;;
23578;SDS011;11967;50.852;4.400;2022-08-01T13:56:23;1.63;;;1.15;;
23578;SDS011;11967;50.852;4.400;2022-08-01T13:58:50;2.40;;;1.25;;
23578;SDS011;11967;50.852;4.400;2022-08-01T14:01:15;2.90;;;1.20;;
23578;SDS011;11967;50.852;4.400;2022-08-01T14:03:41;2.65;;;1.30;;
23578;SDS011;11967;50.852;4.400;2022-08-01T14:06:07;4.57;;;3.50;;
23578;SDS011;11967;50.852;4.400;2022-08-01T14:08:33;5.82;;;1.30;;
23578;SDS011;11967;50.852;4.400;2022-08-01T14:10:59;2.78;;;1.25;;
23578;SDS011;11967;50.852;4.400;2022-08-01T14:13:26;5.40;;;1.50;;
23578;SDS011;11967;50.852;4.400;2022-08-01T14:15:51;2.05;;;1.20;;
23578;SDS011;11967;50.852;4.400;2022-08-01T14:18:17;3.30;;;1.38;;
23578;SDS011;11967;50.852;4.400;2022-08-01T14:20:43;4.15;;;1.50;;
23578;SDS011;11967;50.852;4.400;2022-08-01T14:23:09;2.17;;;1.25;;
23578;SDS011;11967;50.852;4.400;2022-08-01T14:25:35;2.63;;;1.23;;
23578;SDS011;11967;50.852;4.400;2022-08-01T14:28:02;2.58;;;1.48;;
23578;SDS011;11967;50.852;4.400;2022-08-01T14:30:28;2.42;;;1.25;;
23578;SDS011;11967;50.852;4.400;2022-08-01T14:32:54;1.88;;;1.20;;
23578;SDS011;11967;50.852;4.400;2022-08-01T14:35:20;3.33;;;1.30;;
23578;SDS011;11967;50.852;4.400;2022-08-01T14:37:46;1.42;;;1.02;;
23578;SDS011;11967;50.852;4.400;2022-08-01T14:40:12;4.78;;;1.60;;
23578;SDS011;11967;50.852;4.400;2022-08-01T14:42:38;4.40;;;1.52;;
23578;SDS011;11967;50.852;4.400;2022-08-01T14:45:05;2.13;;;1.10;;
23578;SDS011;11967;50.852;4.400;2022-08-01T14:47:35;2.90;;;1.13;;
23578;SDS011;11967;50.852;4.400;2022-08-01T14:50:07;3.72;;;1.50;;
23578;SDS011;11967;50.852;4.400;2022-08-01T14:52:35;2.22;;;1.42;;
23578;SDS011;11967;50.852;4.400;2022-08-01T14:55:02;6.57;;;2.80;;
23578;SDS011;11967;50.852;4.400;2022-08-01T14:57:28;6.18;;;2.15;;
23578;SDS011;11967;50.852;4.400;2022-08-01T14:59:55;3.42;;;1.30;;
23578;SDS011;11967;50.852;4.400;2022-08-01T15:02:21;3.47;;;1.38;;
23578;SDS011;11967;50.852;4.400;2022-08-01T15:04:47;3.30;;;1.13;;
23578;SDS011;11967;50.852;4.400;2022-08-01T15:07:13;3.42;;;1.40;;
23578;SDS011;11967;50.852;4.400;2022-08-01T15:09:40;4.93;;;1.30;;
23578;SDS011;11967;50.852;4.400;2022-08-01T15:12:06;1.20;;;1.00;;
23578;SDS011;11967;50.852;4.400;2022-08-01T15:14:32;2.17;;;1.20;;
23578;SDS011;11967;50.852;4.400;2022-08-01T15:17:17;3.92;;;1.20;;
23578;SDS011;11967;50.852;4.400;2022-08-01T15:19:44;1.70;;;1.15;;
23578;SDS011;11967;50.852;4.400;2022-08-01T15:22:14;3.38;;;1.00;;
23578;SDS011;11967;50.852;4.400;2022-08-01T15:24:41;4.78;;;1.20;;
23578;SDS011;11967;50.852;4.400;2022-08-01T15:27:07;3.60;;;1.20;;